Terminal Aerodrome Forecast
Issued by NWS Cleveland, OH

Home | Current Version | Previous Version | Graphics & Text | Print | Product List | Glossary On
Versions: 1 2 3 4 5 6 7 8 9 10 11 12 13 14 15 16 17 18
000
FTUS41 KCLE 251700
TAFCAK
TAF
KCAK 251739Z 2518/2618 35006KT P6SM BKN200
     FM260000 03004KT P6SM OVC080
     FM260800 03006KT P6SM BKN025 OVC080
     FM261000 03006KT 3SM -SN OVC025
     FM261200 01008KT 1 1/2SM -SN BR OVC012=

USA.gov is the U.S. government's official web portal to all federal, state and local government web resources and services.